Luca Ranieri

Olheiro-Chefe - Cesena
3 Dez 2028
Domingo
Processo

Personalidade

Adaptabilidade (14) Ambição (1) Controvérsia (5) Lealdade (19) Pressão (14) Profissionalismo (13) Espírito Esportivo (9) Temperamento (7)

Perfil

Estilo de Treinamento Democrático
Licença Continental A
Determinação 7
Gestão de Pessoas 7
Motivação 10
Disciplina 6
Satisfação no Trabalho
100%
Fadiga
0%
Função Olheiro-Chefe
Salário 35.2K p/s
Contrato 14.03.2029

Desempenho

Comportamento Bom
Eficácia do Treinamento
48%
Desenvolvimento do Jogador
45%
Prevenção de Lesões
35%
Implementação Tática
25%

Eventos Recentes

Avaliou um jogador agora
Participou de uma reunião de recrutamento agora
Avaliou um jogador agora
Participou de uma reunião de recrutamento 7d atrás
Avaliou um jogador 7d atrás
Avaliou um jogador 7d atrás
Avaliou um jogador 7d atrás
Avaliou um jogador 14d atrás

Monitorando agora

201
Jogador Clube Status Habilidade Confiança Observado Última observação Último voto
Gideon Manaseh Ikorodu City Ativo 95 / 97 40% 4 02.12.2028 -
Tyson Pearce St. Louis CITY SC Ativo 92 / 99 40% 3 02.12.2028 -
Cheveyo Tsawa Club Brugge Ativo 127 / 145 40% 2 02.12.2028 -
Vitaly Bondarev Ural Ativo 103 / 99 40% 1 01.12.2028 -
David Weiss Omonoia Ativo 107 / 127 40% 1 01.12.2028 -
Salvador Blopá Wolverhampton Ativo 130 / 138 40% 1 01.12.2028 -
Giovanni Leoni Lincoln City Ativo 144 / 157 40% 2 28.11.2028 -
Andrija Bulatović Chamois Niortais Ativo 136 / 144 40% 2 28.11.2028 -
Harrison Armstrong Ipswich Town Ativo 139 / 143 40% 4 28.11.2028 -
Jan Bürger Northampton Town Ativo 121 / 131 40% 4 27.11.2028 -
Mateo Faure BATE Ativo 95 / 80 40% 4 27.11.2028 -
Estanislao López Colón Ativo 97 / 85 40% 5 27.11.2028 -
Tyler Fletcher Rotherham United Ativo 122 / 121 40% 11 26.11.2028 -
Chris Rigg West Ham United Ativo 138 / 145 40% 4 26.11.2028 -
Davide De Fraia Latina Ativo 95 / 95 40% 1 26.11.2028 -
Christos Mouzakitis Hull City Ativo 139 / 147 40% 5 23.11.2028 -
Veljko Milosavljević Bournemouth Ativo 148 / 147 40% 3 23.11.2028 -
Aytor Herrera Mineros de Guayana Ativo 90 / 76 40% 2 22.11.2028 -
Pietro La Torre Queens Park Rangers Ativo 101 / 112 40% 2 22.11.2028 -
Máximo Munarriz San Telmo Ativo 96 / 104 40% 2 19.11.2028 -
Felipe Pujol Vélez Ativo 116 / 118 40% 3 19.11.2028 -
Balagie Darboe FC Dallas Ativo 79 / 98 40% 1 17.11.2028 -
Trey Nyoni Rotherham United Ativo 144 / 151 40% 6 16.11.2028 -
Matías Magdaleno Estudiantes Ativo 117 / 134 40% 1 16.11.2028 -
Diego León Rotherham United Ativo 131 / 126 40% 3 15.11.2028 -
Johan Solstad-Nøis Tromso Ativo 94 / 101 40% 2 12.11.2028 -
Snyder Brunell Seattle Sounders Ativo 87 / 100 40% 2 12.11.2028 -
Ronan Kpakio AC Milan Ativo 123 / 125 40% 1 12.11.2028 -
José Neto Benfica Ativo 123 / 135 40% 1 11.11.2028 -
Matteo Palma Udinese Ativo 130 / 128 40% 1 09.11.2028 -
Mateo Caballero Defensor Sporting Ativo 94 / 94 40% 1 09.11.2028 -
Riquelme Thompson-Jones Accrington Stanley Ativo 114 / 130 40% 6 08.11.2028 -
Miguel Figueiredo Benfica Ativo 131 / 125 40% 7 07.11.2028 -
Onyeuche Ujunwa Ikorodu City Ativo 94 / 96 40% 6 07.11.2028 -
Eman Košpo Zorya Ativo 112 / 112 40% 2 06.11.2028 -
Germán Barbas Racing Santander Ativo 123 / 132 40% 1 06.11.2028 -
Björn Hedlöf Helsingborg Ativo 94 / 105 40% 2 04.11.2028 -
Luka Vušković Tottenham Ativo 149 / 146 40% 1 04.11.2028 -
Ayyoub Bouaddi Stoke City Ativo 150 / 156 40% 3 01.11.2028 -
Malte Heyde Esbjerg Ativo 110 / 116 40% 1 01.11.2028 -
Kiani Inge Groningen Ativo 113 / 124 40% 4 30.10.2028 -
Juan Camilo Córdoba Deportivo Pereira Ativo 89 / 100 40% 1 30.10.2028 -
Noah Markmann Esbjerg Ativo 125 / 124 40% 1 29.10.2028 -
Celías Ingenthron Platense Ativo 127 / 112 40% 1 28.10.2028 -
Anderson Acevedo Bogota Ativo 92 / 109 40% 2 27.10.2028 -
Louis Page Leicester City Ativo 132 / 151 40% 2 25.10.2028 -
Alessio Insignito Spezia Ativo 106 / 123 40% 1 25.10.2028 -
Matías Satas Grimsby Town Ativo 103 / 117 40% 1 25.10.2028 -
Martim Cunha Porto Ativo 117 / 111 40% 3 24.10.2028 -
Máximo Magnoli Ferro Carril Oeste Ativo 103 / 104 40% 2 24.10.2028 -
Yury Oyarzo Racing Ativo 104 / 102 40% 1 23.10.2028 -
Samuel Molano Patriotas Ativo 81 / 99 40% 1 23.10.2028 -
Andrey Ivlev Nizhniy Novgorod Ativo 109 / 112 40% 2 21.10.2028 -
Filip Reshane Stabaek Ativo 109 / 105 40% 1 21.10.2028 -
Ezra Mayers West Ham United Ativo 131 / 134 40% 4 15.10.2028 -
Alejandro Almaraz NK Celje Ativo 119 / 125 40% 1 15.10.2028 -
Harry Amass Manchester United Ativo 150 / 146 40% 1 14.10.2028 -
Daniel Banjaqui Benfica Ativo 134 / 125 40% 3 12.10.2028 -
Alessandro De Luca Sint-Truiden Ativo 98 / 94 40% 1 12.10.2028 -
Davinchi Getafe Ativo 121 / 120 40% 1 12.10.2028 -
Alexandr Derzhinskiy Slavia Mozyr Ativo 100 / 109 40% 1 11.10.2028 -
Agustín Medina Lanús Ativo 128 / 119 40% 2 06.10.2028 -
Andrei Racu Kasimpasa Ativo 98 / 90 40% 1 05.10.2028 -
Andrea Astrologo AlbinoLeffe Relatório pronto 103 / 93 76% 1 21.08.2028 -
Jamal Iddrissou Pergolettese Ativo 117 / 133 40% 2 31.07.2028 -
Lautaro Díaz San Martín Ativo 96 / 85 40% 1 31.07.2028 -
Giovanni Carbone Cosenza Ativo 85 / 82 40% 1 31.07.2028 -
Ben Broggio Mansfield Town Ativo 119 / 131 40% 3 26.07.2028 -
Shea Lacey Crystal Palace Ativo 133 / 132 40% 2 19.06.2028 -
Josh Nichols Oldham Athletic Ativo 120 / 132 40% 4 19.06.2028 -
Christian Aucelli Trento Perdido 113 / 108 76% 1 19.06.2028 -
Ryan Oné Sheffield United Ativo 119 / 135 40% 1 19.06.2028 -
Luca Mazzeo Picerno Perdido 107 / 98 76% 1 06.06.2028 -
Babis Kostoulas Oxford United Ativo 148 / 156 40% 6 31.05.2028 -
Amin Nabizada Exeter City Ativo 114 / 112 40% 3 31.05.2028 -
Eduard Ihnatov Ospitaletto Ativo 96 / 110 40% 3 31.05.2028 -
Igor Tyjon Barrow AFC Ativo 116 / 134 40% 2 30.05.2028 -
Leo Pecover Swindon Town Ativo 103 / 109 40% 1 30.05.2028 -
Alphadjo Cissé Lecce Ativo 136 / 143 40% 2 28.05.2028 -
Ryan Kavuma-McQueen Accrington Stanley Ativo 123 / 119 40% 2 27.05.2028 -
Mattia Esposito Virtus Verona Ativo 82 / 102 40% 1 25.05.2028 -
Eli Junior Kroupi Bournemouth Ativo 144 / 143 40% 4 24.05.2028 -
Henrique Carmo Sochi Ativo 124 / 149 40% 4 24.05.2028 -
Sindre Walle Egeli Udinese Ativo 143 / 142 40% 2 23.05.2028 -
Rio Ngumoha Plymouth Argyle Ativo 147 / 153 40% 3 23.05.2028 -
Gabe Forsyth Colchester United Ativo 114 / 121 40% 1 22.05.2028 -
Ryan McAidoo Oldham Athletic Ativo 128 / 122 40% 3 21.05.2028 -
Romelle Donovan Brentford Ativo 131 / 143 40% 3 20.05.2028 -
Tomás Peixoto Porto Ativo 104 / 96 40% 1 19.05.2028 -
Ibrahim Fullah Charlton Athletic Ativo 125 / 132 40% 1 19.05.2028 -
Gaël Lafont Dolomiti Bellunesi Ativo 100 / 118 40% 2 18.05.2028 -
Gabriel Mec Feirense Ativo 123 / 124 40% 1 18.05.2028 -
Fletcher Boyd Accrington Stanley Ativo 105 / 111 40% 1 17.05.2028 -
İsak Vural Audace Cerignola Ativo 125 / 116 40% 1 15.05.2028 -
Omar Khedr Gillingham Ativo 117 / 117 40% 2 12.05.2028 -
Mateus Mané Burnley Ativo 139 / 142 40% 1 12.05.2028 -
Andrea Luongo Trento Ativo 95 / 103 40% 2 10.05.2028 -
Luca Williams-Barnett Walsall Ativo 125 / 134 40% 1 01.05.2028 -
Jake Evans Crewe Alexandra Ativo 108 / 112 40% 2 30.04.2028 -
André Miranda Porto Ativo 117 / 118 40% 1 25.04.2028 -
Kerim Alajbegović Modena Ativo 136 / 142 40% 3 18.04.2028 -
Luke Brooke-Smith Chesterfield Ativo 99 / 105 40% 1 18.04.2028 -
Federico Matarán Giana Erminio Ativo 107 / 103 40% 7 08.04.2028 -
Nicolas Sport Recife Ativo 105 / 108 40% 1 08.04.2028 -
Olivier Mambwa Young Boys Ativo 109 / 128 40% 1 03.04.2028 -
Othniël Raterink Cagliari Ativo 120 / 129 40% 3 25.03.2028 -
Andrea Cogoni Cosenza Ativo 107 / 126 40% 1 25.03.2028 -
Olivier Leroux Mouscron Ativo 99 / 119 40% 3 21.03.2028 -
Claudio Martey Pianese Ativo 88 / 80 40% 1 21.03.2028 -
Orazio Pazienza Foggia Ativo 98 / 97 40% 1 19.03.2028 -
Abubakar Adams Aduana Stars Ativo 84 / 86 40% 2 15.03.2028 -
Simone Suppa Virtus Verona Ativo 87 / 91 40% 1 11.03.2028 -
Tobiáš Pališčák Zlin Ativo 99 / 104 40% 1 08.03.2028 -
Matvey Bardachev Zenit Ativo 110 / 106 40% 1 08.03.2028 -
Alessio Rizza Livorno Ativo 108 / 108 76% 1 10.01.2028 -
Mao Hosoya Santos Ativo 134 / 135 67% 1 01.01.2028 -
Bitello Universidad de Chile Ativo 135 / 135 68% 1 01.01.2028 -
Facundo Torres Millonarios Ativo 134 / 134 67% 1 01.01.2028 -
Matías Canedo Rampla Juniors Ativo 92 / 71 40% 1 31.12.2027 -
Josh Acheampong Everton Ativo 139 / 158 40% 2 20.12.2027 -
Luighi Palmeiras Ativo 110 / 128 40% 1 20.12.2027 -
Olívio Tomé Benfica Ativo 120 / 127 40% 1 20.12.2027 -
Matias Siltanen Malmo FF Ativo 119 / 141 40% 6 19.12.2027 -
Edison Gruezo Guadalajara Ativo 101 / 102 40% 1 19.12.2027 -
Emmanuel Ndubueze Shooting Stars Ativo 88 / 101 40% 5 15.12.2027 -
Nupe Godstime Bayelsa United Ativo 85 / 96 40% 2 15.12.2027 -
Gabriele Bertolini Vicenza Ativo 101 / 118 40% 2 13.12.2027 -
Francisco Marchant Colo-Colo Ativo 89 / 112 40% 1 13.12.2027 -
Victor Hernandez Santa Fe Ativo 120 / 136 40% 7 10.12.2027 -
Gianluca Prestianni Benfica Ativo 145 / 147 40% 3 10.12.2027 -
Joseph Abah Remo Stars Ativo 90 / 102 40% 2 08.12.2027 -
Pedro Baltika Ativo 138 / 154 40% 4 07.12.2027 -
Colin Guske Orlando City Ativo 104 / 110 40% 2 07.12.2027 -
Senny Mayulu Paris Saint-Germain Ativo 144 / 157 40% 1 06.12.2027 -
Giovanni Baroni Talleres Ativo 104 / 127 40% 2 04.12.2027 -
Joel Ezra Enyimba Ativo 99 / 108 40% 2 04.12.2027 -
Kabiru Abdullahi Barau Ativo 92 / 81 40% 3 03.12.2027 -
Dániel Pintér Inter Miami CF Ativo 94 / 90 40% 1 01.12.2027 -
Keyano Marrah Hammarby Ativo 88 / 100 40% 1 30.11.2027 -
Musa Malik Ikorodu City Ativo 84 / 96 40% 1 26.11.2027 -
Tiago Pucciarelli IF Elfsborg Ativo 106 / 98 40% 1 25.11.2027 -
Abdulrahman Hamisu Niger Tornadoes Ativo 87 / 103 40% 1 23.11.2027 -
Olger Escobar CF Montreal Ativo 93 / 85 40% 2 22.11.2027 -
Chimobi Igwilo Rangers International Ativo 85 / 96 40% 2 21.11.2027 -
Imran Musa Atvidaberg Ativo 90 / 82 40% 1 19.11.2027 -
Francisco Triver River Plate Ativo 84 / 106 40% 2 16.11.2027 -
Joel Medina Independiente Ativo 102 / 108 40% 1 13.11.2027 -
Matías Arias Vélez Ativo 122 / 134 40% 2 10.11.2027 -
Piero Cari Alianza Lima Ativo 94 / 88 40% 1 08.11.2027 -
Idris Ajiya Nasarawa United Ativo 91 / 84 40% 1 06.11.2027 -
Adrian Skogmar Malmo FF Ativo 120 / 138 40% 1 04.11.2027 -
Ruben Ramos LA Galaxy Ativo 92 / 103 40% 1 02.11.2027 -
Luis Yanes Real Cartagena Ativo 93 / 86 40% 1 02.11.2027 -
Sascha Britschgi AC Milan Ativo 123 / 143 40% 6 10.08.2027 -
Pedro Vian Seewald Dolomiti Bellunesi Ativo 95 / 112 40% 1 29.05.2027 -
Gady Beyuku Blackburn Rovers Ativo 109 / 128 40% 1 29.05.2027 -
Gonçalo Oliveira Benfica Ativo 115 / 128 40% 2 28.05.2027 -
Bade Aluko Leicester City Ativo 108 / 121 40% 2 28.05.2027 -
Charlie Gray Fleetwood Town Ativo 85 / 107 40% 4 26.05.2027 -
Jacopo Bacci Sorrento Ativo 94 / 118 40% 2 26.05.2027 -
Bence Dárdai VfL Wolfsburg Ativo 134 / 146 40% 4 25.05.2027 -
Tiago Freitas Benfica Ativo 113 / 106 40% 5 22.05.2027 -
Rhys Walters Port Vale Ativo 105 / 115 40% 2 16.05.2027 -
Leandro Martins Benfica Ativo 98 / 99 40% 3 15.05.2027 -
Andrea Bertoncini Triestina Ativo 87 / 87 40% 3 13.05.2027 -
Tommaso Cecotti Carpi Ativo 89 / 102 40% 2 12.05.2027 -
Alessandro Zoboletti Sambenedettese Ativo 96 / 106 40% 3 06.05.2027 -
Bernardo Lima Porto Ativo 102 / 119 40% 3 06.05.2027 -
Wessel Kuhn PSV Ativo 113 / 110 40% 1 03.05.2027 -
Samuele di Benedetto Twente Ativo 107 / 111 40% 1 26.04.2027 -
Riyad Idrissi Cagliari Ativo 126 / 131 40% 3 22.04.2027 -
Riley Owen Stevenage Ativo 105 / 107 40% 2 20.04.2027 -
David Ozoh Derby County Ativo 120 / 132 40% 3 19.04.2027 -
Rivaldo Mkhize Black Aces Ativo 92 / 83 40% 2 16.04.2027 -
Kazunari Kita Real Sociedad Ativo 102 / 109 40% 2 27.03.2027 -
Afriyie Sulemana WAFA Ativo 81 / 88 40% 1 23.03.2027 -
Maxim Radchenko Rostov Ativo 73 / 78 40% 1 23.03.2027 -
Mpho Khethang FC Diarra Ativo 77 / 93 40% 1 20.03.2027 -
Eivind Helland AC Milan Ativo 133 / 136 40% 1 11.03.2027 -
Samuele Diodato Lumezzane Ativo 90 / 89 40% 1 11.03.2027 -
Federico Valentini Forli Ativo 87 / 102 40% 1 10.03.2027 -
Amine Boukamir Charleroi Ativo 106 / 94 40% 1 08.03.2027 -
Dean Jali Platinum Stars Ativo 91 / 87 40% 1 07.03.2027 -
Francesco D'Alessio Cittadella Ativo 114 / 108 69% 1 07.01.2027 -
Sampson Dweh Mallorca Ativo 133 / 134 66% 1 01.01.2027 -
Brayan Gil Baltika Ativo 121 / 141 40% 2 29.12.2026 -
Etiosa Ighodaro Kaizer Chiefs Ativo 104 / 115 40% 1 29.12.2026 -
Martin Sekulić Ural Ativo 99 / 103 40% 1 27.12.2026 -
Nicolò Zaniolo Udinese Ativo 152 / 130 40% 2 26.12.2026 -
Giacomo Raspadori Atalanta Ativo 155 / 131 40% 1 26.12.2026 -
Jordan Zemura Udinese Ativo 131 / 139 40% 1 26.12.2026 -
Willem Geubbels Lecce Ativo 135 / 129 40% 2 24.12.2026 -
Giorgi Kvernadze Frosinone Ativo 128 / 113 40% 2 23.12.2026 -
Luis Caicedo Spartak 1918 Ativo 104 / 98 40% 1 23.12.2026 -
Mattia Felici Cagliari Ativo 138 / 119 40% 2 17.12.2026 -
Amin Sarr Hellas Verona Ativo 133 / 121 40% 3 16.12.2026 -
Mathys Tel Tottenham Ativo 148 / 136 40% 1 16.12.2026 -
David Romero Parma Ativo 117 / 134 40% 1 14.12.2026 -
Yeangel Montero Naxxar Lions Ativo 108 / 116 40% 1 14.12.2026 -
Talles Magno New York City Ativo 127 / 135 40% 1 09.12.2026 -
Gianluca Scamacca Atalanta Ativo 150 / 149 40% 1 07.12.2026 -